createdAt,value
2022-12-04T00:00:08.322Z,102241.31
2022-12-04T00:00:27.309Z,102246.59
2022-12-04T00:01:04.131Z,102237.84
2022-12-04T00:01:19.632Z,102245.75
2022-12-04T00:01:33.265Z,102243.13
2022-12-04T00:01:45.937Z,102244.88
2022-12-04T00:01:58.526Z,102245.72
2022-12-04T00:02:11.285Z,102241.31
2022-12-04T00:02:23.920Z,102242.22
2022-12-04T00:02:36.674Z,102243.09
2022-12-04T00:02:49.323Z,102248.34
2022-12-04T00:03:02.017Z,102243.94
2022-12-04T00:03:15.729Z,102246.59
2022-12-04T00:03:28.696Z,102246.59
2022-12-04T00:03:41.470Z,102239.59
2022-12-04T00:03:55.547Z,102249.22
2022-12-04T00:04:08.325Z,102243.94
2022-12-04T00:04:20.988Z,102241.31
2022-12-04T00:04:34.746Z,102248.28
2022-12-04T00:04:47.441Z,102243.00
2022-12-04T00:05:00.226Z,102244.78
2022-12-04T00:05:13.118Z,102243.00
2022-12-04T00:05:25.751Z,102248.25
2022-12-04T00:05:38.318Z,102249.13
2022-12-04T00:06:04.051Z,102249.97
2022-12-04T00:06:18.274Z,102248.25
2022-12-04T00:06:30.994Z,102248.28
2022-12-04T00:06:43.569Z,102252.69
2022-12-04T00:06:58.851Z,102250.94
2022-12-04T00:07:11.796Z,102252.72
2022-12-04T00:07:25.456Z,102244.75
2022-12-04T00:07:38.347Z,102253.56
2022-12-04T00:07:51.081Z,102248.25
2022-12-04T00:08:03.906Z,102242.97
2022-12-04T00:08:16.608Z,102250.91
2022-12-04T00:08:29.226Z,102250.03
2022-12-04T00:08:42.297Z,102252.69
2022-12-04T00:08:55.846Z,102249.19
2022-12-04T00:09:09.605Z,102251.75
2022-12-04T00:09:22.487Z,102249.97
2022-12-04T00:09:35.059Z,102251.75
2022-12-04T00:09:47.673Z,102249.97
2022-12-04T00:10:00.534Z,102253.53
2022-12-04T00:10:13.189Z,102245.59
2022-12-04T00:10:26.140Z,102248.25
2022-12-04T00:10:43.542Z,102246.47
2022-12-04T00:10:56.157Z,102244.69
2022-12-04T00:11:11.433Z,102244.69
2022-12-04T00:11:26.411Z,102244.69
2022-12-04T00:11:39.454Z,102245.63
2022-12-04T00:11:53.308Z,102248.25
2022-12-04T00:12:06.313Z,102246.47
2022-12-04T00:12:18.926Z,102242.97
2022-12-04T00:12:31.577Z,102242.13
2022-12-04T00:12:44.204Z,102248.25
2022-12-04T00:12:56.780Z,102242.97
2022-12-04T00:13:09.532Z,102245.63
2022-12-04T00:13:22.172Z,102243.81
2022-12-04T00:13:36.516Z,102241.16
2022-12-04T00:13:49.991Z,102240.31
2022-12-04T00:14:06.901Z,102237.66
2022-12-04T00:14:20.103Z,102241.16
2022-12-04T00:14:32.886Z,102249.09
2022-12-04T00:15:23.501Z,102243.84
2022-12-04T00:15:26.980Z,102241.19
2022-12-04T00:15:42.944Z,102243.84
2022-12-04T00:15:55.588Z,102244.69
2022-12-04T00:16:12.260Z,102242.06
2022-12-04T00:16:27.547Z,102239.41
2022-12-04T00:16:40.356Z,102246.47
2022-12-04T00:16:53.184Z,102237.69
2022-12-04T00:17:06.812Z,102243.84
2022-12-04T00:17:19.398Z,102243.84
2022-12-04T00:17:32.056Z,102240.34
2022-12-04T00:17:47.638Z,102242.97
2022-12-04T00:18:00.262Z,102240.34
2022-12-04T00:18:12.895Z,102242.97
2022-12-04T00:18:25.667Z,102242.97
2022-12-04T00:18:38.353Z,102243.91
2022-12-04T00:18:52.309Z,102244.75
2022-12-04T00:19:05.347Z,102246.53
2022-12-04T00:19:17.970Z,102241.28
2022-12-04T00:19:30.558Z,102236.88
2022-12-04T00:19:43.186Z,102244.78
2022-12-04T00:19:55.997Z,102245.72
2022-12-04T00:20:09.628Z,102248.34
2022-12-04T00:20:24.112Z,102246.59
2022-12-04T00:20:39.707Z,102246.59
2022-12-04T00:20:53.898Z,102249.25
2022-12-04T00:21:08.893Z,102244.88
2022-12-04T00:21:23.456Z,102252.81
2022-12-04T00:21:36.557Z,102249.25
2022-12-04T00:21:49.894Z,102248.41
2022-12-04T00:22:03.492Z,102247.50
2022-12-04T00:22:16.070Z,102241.31
2022-12-04T00:22:28.664Z,102249.25
2022-12-04T00:22:41.374Z,102247.50
2022-12-04T00:22:54.030Z,102250.16
2022-12-04T00:23:06.912Z,102244.88
2022-12-04T00:23:19.485Z,102243.97
2022-12-04T00:23:32.250Z,102250.16
2022-12-04T00:23:45.949Z,102249.25
2022-12-04T00:23:58.527Z,102247.53
2022-12-04T00:24:11.285Z,102248.41
2022-12-04T00:24:23.840Z,102248.41
2022-12-04T00:24:36.847Z,102246.63
2022-12-04T00:24:49.417Z,102250.16
2022-12-04T00:25:03.018Z,102251.91
2022-12-04T00:25:15.624Z,102255.44
2022-12-04T00:25:30.310Z,102249.22
2022-12-04T00:25:43.233Z,102254.53
2022-12-04T00:26:00.340Z,102246.59
2022-12-04T00:26:16.443Z,102248.34
2022-12-04T00:26:31.145Z,102246.59
2022-12-04T00:26:43.820Z,102248.34
2022-12-04T00:26:56.520Z,102250.09
2022-12-04T00:27:09.093Z,102249.25
2022-12-04T00:27:21.696Z,102251.00
2022-12-04T00:27:34.305Z,102246.59
2022-12-04T00:27:47.878Z,102241.28
2022-12-04T00:28:00.463Z,102256.28
2022-12-04T00:28:13.056Z,102249.22
2022-12-04T00:28:25.648Z,102247.44
2022-12-04T00:28:38.554Z,102249.22
2022-12-04T00:28:52.142Z,102250.94
2022-12-04T00:29:05.003Z,102239.50
2022-12-04T00:29:19.140Z,102244.78
2022-12-04T00:29:31.731Z,102243.00
2022-12-04T00:29:44.386Z,102241.25
2022-12-04T00:29:57.161Z,102239.47
2022-12-04T00:30:10.939Z,102237.72
2022-12-04T00:30:23.566Z,102239.50
2022-12-04T00:30:41.381Z,102234.22
2022-12-04T00:30:53.954Z,102246.53
2022-12-04T00:31:08.992Z,102240.38
2022-12-04T00:31:23.890Z,102242.13
2022-12-04T00:31:36.643Z,102239.50
2022-12-04T00:31:50.391Z,102242.16
2022-12-04T00:32:03.052Z,102242.13
2022-12-04T00:32:16.016Z,102246.53
2022-12-04T00:32:28.583Z,102248.25
2022-12-04T00:32:41.407Z,102239.47
2022-12-04T00:32:54.108Z,102250.91
2022-12-04T00:33:06.699Z,102248.25
2022-12-04T00:33:20.576Z,102249.97
2022-12-04T00:33:33.706Z,102254.41
2022-12-04T00:33:46.840Z,102247.41
2022-12-04T00:34:00.743Z,102249.13
2022-12-04T00:34:15.542Z,102260.56
2022-12-04T00:34:28.368Z,102249.97
2022-12-04T00:34:40.951Z,102256.19
2022-12-04T00:34:53.559Z,102255.28
2022-12-04T00:35:07.071Z,102255.28
2022-12-04T00:35:19.714Z,102257.03
2022-12-04T00:35:32.305Z,102261.38
2022-12-04T00:35:45.867Z,102260.50
2022-12-04T00:36:01.378Z,102264.94
2022-12-04T00:36:16.050Z,102267.50
2022-12-04T00:36:29.542Z,102257.84
2022-12-04T00:36:42.145Z,102255.22
2022-12-04T00:36:54.811Z,102257.84
2022-12-04T00:37:08.400Z,102258.72
2022-12-04T00:37:21.248Z,102258.72
2022-12-04T00:37:33.942Z,102261.38
2022-12-04T00:37:46.530Z,102266.63
2022-12-04T00:37:59.134Z,102264.88
2022-12-04T00:38:11.716Z,102258.69
2022-12-04T00:38:24.381Z,102253.38
2022-12-04T00:38:38.257Z,102257.78
2022-12-04T00:38:52.678Z,102261.31
2022-12-04T00:39:05.836Z,102257.78
2022-12-04T00:39:18.390Z,102264.81
2022-12-04T00:39:31.013Z,102257.78
2022-12-04T00:39:43.634Z,102262.16
2022-12-04T00:39:56.531Z,102263.03
2022-12-04T00:40:10.972Z,102263.88
2022-12-04T00:40:23.595Z,102260.38
2022-12-04T00:40:36.182Z,102261.22
2022-12-04T00:40:50.144Z,102265.66
2022-12-04T00:41:03.236Z,102258.59
2022-12-04T00:41:17.956Z,102267.38
2022-12-04T00:41:33.351Z,102263.00
2022-12-04T00:41:46.182Z,102265.66
2022-12-04T00:41:58.746Z,102263.00
2022-12-04T00:42:11.361Z,102263.00
2022-12-04T00:42:23.991Z,102264.72
2022-12-04T00:42:36.570Z,102267.38
2022-12-04T00:42:50.184Z,102269.13
2022-12-04T00:43:02.812Z,102263.84
2022-12-04T00:43:15.470Z,102262.09
2022-12-04T00:43:28.904Z,102257.66
2022-12-04T00:43:41.708Z,102262.94
2022-12-04T00:43:54.484Z,102262.09
2022-12-04T00:44:07.094Z,102261.22
2022-12-04T00:44:19.796Z,102262.09
2022-12-04T00:44:33.441Z,102262.09
2022-12-04T00:44:46.033Z,102255.00
2022-12-04T00:44:58.628Z,102265.56
2022-12-04T00:45:11.666Z,102255.91
2022-12-04T00:45:24.292Z,102253.25
2022-12-04T00:45:37.040Z,102252.34
2022-12-04T00:45:50.106Z,102261.13
2022-12-04T00:46:03.883Z,102259.41
2022-12-04T00:46:17.639Z,102262.91
2022-12-04T00:46:30.622Z,102262.91
2022-12-04T00:46:43.225Z,102260.28
2022-12-04T00:46:55.812Z,102261.13
2022-12-04T00:47:08.514Z,102258.56
2022-12-04T00:47:21.114Z,102254.13
2022-12-04T00:47:34.672Z,102255.00
2022-12-04T00:47:47.254Z,102253.25
2022-12-04T00:47:59.808Z,102259.41
2022-12-04T00:48:12.600Z,102257.63
2022-12-04T00:48:25.631Z,102260.28
2022-12-04T00:48:38.223Z,102249.69
2022-12-04T00:48:51.145Z,102249.69
2022-12-04T00:49:04.776Z,102259.41
2022-12-04T00:49:17.362Z,102256.78
2022-12-04T00:49:29.959Z,102257.63
2022-12-04T00:49:42.544Z,102245.34
2022-12-04T00:49:55.407Z,102244.41
2022-12-04T00:50:09.339Z,102250.56
2022-12-04T00:50:23.625Z,102248.81
2022-12-04T00:50:38.142Z,102250.56
2022-12-04T00:50:50.786Z,102247.03
2022-12-04T00:51:05.785Z,102247.03
2022-12-04T00:51:20.707Z,102247.00
2022-12-04T00:51:33.296Z,102241.72
2022-12-04T00:51:46.880Z,102243.47
2022-12-04T00:51:59.460Z,102244.38
2022-12-04T00:52:12.055Z,102236.47
2022-12-04T00:52:24.719Z,102242.59
2022-12-04T00:52:37.391Z,102246.13
2022-12-04T00:52:49.949Z,102242.59
2022-12-04T00:53:02.540Z,102243.47
2022-12-04T00:53:15.342Z,102244.38
2022-12-04T00:53:29.062Z,102246.13
2022-12-04T00:53:41.998Z,102245.22
2022-12-04T00:53:54.587Z,102243.44
2022-12-04T00:54:07.371Z,102252.22
2022-12-04T00:54:19.968Z,102244.28
2022-12-04T00:54:32.558Z,102237.22
2022-12-04T00:54:45.554Z,102245.22
2022-12-04T00:54:59.162Z,102245.16
2022-12-04T00:55:12.053Z,102246.09
2022-12-04T00:55:26.813Z,102242.53
2022-12-04T00:55:39.968Z,102245.16
2022-12-04T00:55:52.552Z,102239.94
2022-12-04T00:56:07.150Z,102250.50
2022-12-04T00:56:21.642Z,102246.13
2022-12-04T00:56:35.217Z,102241.75
2022-12-04T00:56:47.835Z,102247.91
2022-12-04T00:57:00.403Z,102247.91
2022-12-04T00:57:13.012Z,102245.25
2022-12-04T00:57:25.625Z,102248.75
2022-12-04T00:57:38.239Z,102243.47
2022-12-04T00:57:53.637Z,102250.53
2022-12-04T00:58:09.546Z,102246.13
2022-12-04T00:58:22.145Z,102246.13
2022-12-04T00:58:34.740Z,102252.28
2022-12-04T00:58:48.235Z,102249.66
2022-12-04T00:59:01.693Z,102246.09
2022-12-04T00:59:15.553Z,102244.38
2022-12-04T00:59:28.309Z,102246.13
2022-12-04T00:59:40.920Z,102247.00
2022-12-04T00:59:53.893Z,102250.53
2022-12-04T01:00:08.100Z,102254.03
2022-12-04T01:00:20.699Z,102252.28
2022-12-04T01:00:33.425Z,102254.94
2022-12-04T01:00:47.054Z,102245.22
2022-12-04T01:01:03.701Z,102249.66
2022-12-04T01:01:20.645Z,102261.06
2022-12-04T01:01:33.430Z,102255.78
2022-12-04T01:01:46.175Z,102256.66
2022-12-04T01:01:58.794Z,102255.72
2022-12-04T01:02:12.508Z,102254.00
2022-12-04T01:02:25.147Z,102253.09
2022-12-04T01:02:37.836Z,102257.50
2022-12-04T01:02:50.545Z,102262.81
2022-12-04T01:03:04.121Z,102252.22
2022-12-04T01:03:16.850Z,102249.59
2022-12-04T01:03:29.566Z,102254.84
2022-12-04T01:03:43.168Z,102247.81
2022-12-04T01:03:57.299Z,102250.44
2022-12-04T01:04:09.894Z,102247.81
2022-12-04T01:04:22.546Z,102247.81
2022-12-04T01:04:35.292Z,102245.16
2022-12-04T01:04:48.171Z,102246.06
2022-12-04T01:05:01.453Z,102246.91
2022-12-04T01:05:14.184Z,102250.41
2022-12-04T01:05:27.871Z,102248.63
2022-12-04T01:05:41.519Z,102248.63
2022-12-04T01:05:54.297Z,102242.47
2022-12-04T01:06:17.113Z,102253.03
2022-12-04T01:06:31.469Z,102254.75
2022-12-04T01:06:45.064Z,102249.47
2022-12-04T01:07:03.240Z,102246.88
2022-12-04T01:07:17.728Z,102250.41
2022-12-04T01:07:30.361Z,102247.75
2022-12-04T01:07:43.036Z,102247.75
2022-12-04T01:07:56.016Z,102247.72
2022-12-04T01:08:09.335Z,102252.09
2022-12-04T01:08:22.928Z,102245.94
2022-12-04T01:08:35.517Z,102247.66
2022-12-04T01:08:48.715Z,102242.38
2022-12-04T01:09:03.974Z,102250.28
2022-12-04T01:09:16.645Z,102240.56
2022-12-04T01:09:30.258Z,102245.00
2022-12-04T01:09:42.905Z,102237.97
2022-12-04T01:09:55.717Z,102242.38
2022-12-04T01:10:12.326Z,102242.38
2022-12-04T01:10:24.973Z,102239.72
2022-12-04T01:10:38.799Z,102240.66
2022-12-04T01:10:51.453Z,102238.88
2022-12-04T01:11:07.971Z,102244.19
2022-12-04T01:11:21.424Z,102237.19
2022-12-04T01:11:34.214Z,102243.28
2022-12-04T01:11:46.823Z,102240.66
2022-12-04T01:11:59.417Z,102232.75
2022-12-04T01:12:17.552Z,102238.91
2022-12-04T01:12:34.160Z,102243.28
2022-12-04T01:12:49.628Z,102238.91
2022-12-04T01:13:02.251Z,102239.78
2022-12-04T01:13:14.839Z,102240.66
2022-12-04T01:13:27.489Z,102241.53
2022-12-04T01:13:40.068Z,102235.41
2022-12-04T01:13:52.887Z,102238.91
2022-12-04T01:14:06.500Z,102237.19
2022-12-04T01:14:19.114Z,102240.69
2022-12-04T01:14:31.814Z,102244.19
2022-12-04T01:14:44.420Z,102242.47
2022-12-04T01:14:57.080Z,102237.19
2022-12-04T01:15:10.595Z,102242.47
2022-12-04T01:15:23.573Z,102239.81
2022-12-04T01:15:40.437Z,102242.47
2022-12-04T01:15:53.043Z,102238.91
2022-12-04T01:16:05.827Z,102237.19
2022-12-04T01:16:21.509Z,102240.72
2022-12-04T01:16:37.316Z,102237.19
2022-12-04T01:16:51.357Z,102240.66
2022-12-04T01:17:04.053Z,102239.78
2022-12-04T01:17:16.990Z,102235.38
2022-12-04T01:17:29.589Z,102238.00
2022-12-04T01:17:42.360Z,102232.72
2022-12-04T01:17:54.929Z,102236.25
2022-12-04T01:18:07.529Z,102230.09
2022-12-04T01:18:20.123Z,102231.81
2022-12-04T01:18:33.668Z,102230.09
2022-12-04T01:18:46.649Z,102226.53
2022-12-04T01:18:59.807Z,102231.81
2022-12-04T01:19:12.832Z,102233.56
2022-12-04T01:19:25.415Z,102229.16
2022-12-04T01:19:38.037Z,102229.16
2022-12-04T01:19:50.644Z,102225.66
2022-12-04T01:20:04.902Z,102222.16
2022-12-04T01:20:17.973Z,102224.78
2022-12-04T01:20:30.562Z,102230.94
2022-12-04T01:20:48.808Z,102226.53
2022-12-04T01:21:01.412Z,102224.78
2022-12-04T01:21:16.519Z,102222.16
2022-12-04T01:21:29.136Z,102222.16
2022-12-04T01:21:42.768Z,102219.50
2022-12-04T01:21:55.350Z,102221.22
2022-12-04T01:22:07.999Z,102218.59
2022-12-04T01:22:20.672Z,102222.97
2022-12-04T01:22:33.422Z,102218.56
2022-12-04T01:22:46.021Z,102218.53
2022-12-04T01:22:58.614Z,102217.63
2022-12-04T01:23:29.763Z,102213.28
2022-12-04T01:23:42.420Z,102215.94
2022-12-04T01:23:55.056Z,102220.34
2022-12-04T01:24:08.201Z,102215.91
2022-12-04T01:24:20.830Z,102214.13
2022-12-04T01:24:33.416Z,102213.31
2022-12-04T01:24:45.979Z,102216.84
2022-12-04T01:24:58.583Z,102225.66
2022-12-04T01:25:12.591Z,102219.41
2022-12-04T01:25:25.444Z,102219.47
2022-12-04T01:25:38.025Z,102224.72
2022-12-04T01:25:52.301Z,102219.41
2022-12-04T01:26:05.113Z,102219.41
2022-12-04T01:26:17.778Z,102223.84
2022-12-04T01:26:30.515Z,102219.41
2022-12-04T01:26:44.110Z,102215.06
2022-12-04T01:26:56.778Z,102218.56
2022-12-04T01:27:09.446Z,102215.94
2022-12-04T01:27:22.184Z,102222.13
2022-12-04T01:27:34.824Z,102223.84
2022-12-04T01:27:47.407Z,102223.84
2022-12-04T01:28:00.120Z,102212.44
2022-12-04T01:28:13.712Z,102216.84
2022-12-04T01:28:26.888Z,102215.09
2022-12-04T01:28:39.664Z,102217.72
2022-12-04T01:28:52.227Z,102221.22
2022-12-04T01:29:04.953Z,102218.56
2022-12-04T01:29:17.567Z,102211.59
2022-12-04T01:29:30.199Z,102221.19
2022-12-04T01:29:44.044Z,102215.94
2022-12-04T01:29:57.070Z,102215.09
2022-12-04T01:30:10.758Z,102223.00
2022-12-04T01:30:23.483Z,102218.59
2022-12-04T01:30:36.072Z,102220.34
2022-12-04T01:30:58.780Z,102217.69
2022-12-04T01:31:15.226Z,102215.00
2022-12-04T01:31:28.054Z,102219.41
2022-12-04T01:31:40.736Z,102217.63
2022-12-04T01:31:53.463Z,102216.78
2022-12-04T01:32:06.550Z,102215.88
2022-12-04T01:32:20.161Z,102213.28
2022-12-04T01:32:32.743Z,102211.50
2022-12-04T01:32:45.326Z,102213.28
2022-12-04T01:32:57.901Z,102217.63
2022-12-04T01:33:10.501Z,102218.53
2022-12-04T01:33:23.058Z,102217.63
2022-12-04T01:33:37.192Z,102210.59
2022-12-04T01:33:51.885Z,102219.38
2022-12-04T01:34:04.493Z,102212.31
2022-12-04T01:34:17.464Z,102211.47
2022-12-04T01:34:30.094Z,102218.53
2022-12-04T01:34:42.728Z,102214.13
2022-12-04T01:34:55.338Z,102214.13
2022-12-04T01:35:08.755Z,102218.53
2022-12-04T01:35:22.372Z,102214.13
2022-12-04T01:35:34.973Z,102218.53
2022-12-04T01:35:53.052Z,102218.53
2022-12-04T01:36:08.261Z,102215.88
2022-12-04T01:36:24.211Z,102210.59
2022-12-04T01:36:37.904Z,102215.81
2022-12-04T01:36:50.465Z,102216.75
2022-12-04T01:37:03.071Z,102216.75
2022-12-04T01:37:15.697Z,102219.38
2022-12-04T01:37:30.636Z,102217.59
2022-12-04T01:37:43.228Z,102217.59
2022-12-04T01:37:55.823Z,102221.16
2022-12-04T01:38:08.397Z,102223.81
2022-12-04T01:38:21.072Z,102218.53
2022-12-04T01:38:35.763Z,102213.28
2022-12-04T01:38:49.039Z,102213.31
2022-12-04T01:39:01.729Z,102215.06
2022-12-04T01:39:14.338Z,102205.38
2022-12-04T01:39:26.959Z,102212.44
2022-12-04T01:39:39.543Z,102208.94
2022-12-04T01:39:52.294Z,102210.66
2022-12-04T01:40:07.262Z,102215.94
2022-12-04T01:40:20.239Z,102208.94
2022-12-04T01:40:32.839Z,102208.94
2022-12-04T01:40:45.419Z,102208.94
2022-12-04T01:40:58.334Z,102213.38
2022-12-04T01:41:13.029Z,102213.38
2022-12-04T01:41:27.454Z,102214.22
2022-12-04T01:41:41.831Z,102210.75
2022-12-04T01:41:54.404Z,102219.50
2022-12-04T01:42:07.211Z,102218.59
2022-12-04T01:42:19.813Z,102219.50
2022-12-04T01:42:32.455Z,102213.38
2022-12-04T01:42:45.026Z,102214.22
2022-12-04T01:42:59.956Z,102212.44
2022-12-04T01:43:12.989Z,102213.31
2022-12-04T01:43:28.464Z,102212.44
2022-12-04T01:43:41.322Z,102208.00
2022-12-04T01:44:10.850Z,102215.94
2022-12-04T01:44:25.643Z,102214.09
2022-12-04T01:45:18.043Z,102212.41
2022-12-04T01:45:41.746Z,102210.66
2022-12-04T01:45:55.411Z,102207.13
2022-12-04T01:46:09.012Z,102212.41
2022-12-04T01:46:22.729Z,102208.84
2022-12-04T01:46:35.426Z,102203.56
2022-12-04T01:46:51.516Z,102207.13
2022-12-04T01:47:04.088Z,102210.66
2022-12-04T01:47:16.938Z,102204.47
2022-12-04T01:47:29.630Z,102205.38
2022-12-04T01:47:42.322Z,102205.38
2022-12-04T01:47:58.526Z,102201.91
2022-12-04T01:48:19.087Z,102208.94
2022-12-04T01:48:34.985Z,102210.66
2022-12-04T01:48:52.271Z,102208.06
2022-12-04T01:49:07.477Z,102208.94
2022-12-04T01:49:23.423Z,102196.63
2022-12-04T01:49:39.724Z,102204.53
2022-12-04T01:49:52.501Z,102208.09
2022-12-04T01:50:07.212Z,102207.19
2022-12-04T01:50:19.795Z,102207.19
2022-12-04T01:50:32.558Z,102206.31
2022-12-04T01:50:48.520Z,102208.09
2022-12-04T01:51:05.423Z,102208.97
2022-12-04T01:51:21.066Z,102209.88
2022-12-04T01:51:40.154Z,102209.00
2022-12-04T01:51:56.410Z,102204.59
2022-12-04T01:52:14.097Z,102197.56
2022-12-04T01:52:27.064Z,102201.03
2022-12-04T01:52:40.003Z,102207.19
2022-12-04T01:52:52.681Z,102206.28
2022-12-04T01:53:06.377Z,102199.19
2022-12-04T01:53:20.307Z,102208.84
2022-12-04T01:53:35.695Z,102201.84
2022-12-04T01:53:53.149Z,102203.56
2022-12-04T01:54:11.046Z,102202.69
2022-12-04T01:54:28.729Z,102200.06
2022-12-04T01:54:45.085Z,102205.34
2022-12-04T01:55:00.817Z,102203.56
2022-12-04T01:55:13.617Z,102207.13
2022-12-04T01:55:26.427Z,102204.47
2022-12-04T01:55:40.783Z,102204.50
2022-12-04T01:55:53.959Z,102200.09
2022-12-04T01:56:07.625Z,102203.66
2022-12-04T01:56:24.077Z,102209.81
2022-12-04T01:56:40.905Z,102205.38
2022-12-04T01:56:58.215Z,102209.81
2022-12-04T01:57:14.322Z,102204.53
2022-12-04T01:57:29.711Z,102202.84
2022-12-04T01:57:42.678Z,102203.72
2022-12-04T01:57:57.023Z,102200.19
2022-12-04T01:58:10.287Z,102210.75
2022-12-04T01:58:26.956Z,102199.31
2022-12-04T01:58:43.328Z,102206.34
2022-12-04T01:58:59.249Z,102199.31
2022-12-04T01:59:15.601Z,102206.31
2022-12-04T01:59:32.772Z,102204.53
2022-12-04T01:59:50.583Z,102210.75
2022-12-04T02:00:08.540Z,102200.19
2022-12-04T02:00:22.525Z,102208.94
2022-12-04T02:00:35.215Z,102203.69
2022-12-04T02:00:55.731Z,102203.66
2022-12-04T02:01:10.958Z,102208.06
2022-12-04T02:01:24.157Z,102200.16
2022-12-04T02:01:42.882Z,102203.66
2022-12-04T02:02:01.887Z,102200.19
2022-12-04T02:02:19.059Z,102207.19
2022-12-04T02:02:35.116Z,102207.19
2022-12-04T02:02:48.645Z,102202.56
2022-12-04T02:03:01.837Z,102211.25
2022-12-04T02:03:15.145Z,102205.03
2022-12-04T02:03:28.749Z,102210.34
2022-12-04T02:03:41.487Z,102204.25
2022-12-04T02:03:54.524Z,102198.13
2022-12-04T02:04:07.108Z,102206.97
2022-12-04T02:04:19.857Z,102205.22
2022-12-04T02:04:34.849Z,102203.50
2022-12-04T02:04:49.020Z,102198.22
2022-12-04T02:05:03.578Z,102203.50
2022-12-04T02:05:19.301Z,102203.50
2022-12-04T02:05:31.909Z,102203.53
2022-12-04T02:05:44.507Z,102204.41
2022-12-04T02:05:57.107Z,102207.03
2022-12-04T02:06:09.713Z,102207.03
2022-12-04T02:06:22.301Z,102201.75
2022-12-04T02:06:37.253Z,102204.41
2022-12-04T02:06:49.897Z,102200.03
2022-12-04T02:07:02.908Z,102194.75
2022-12-04T02:07:15.589Z,102200.03
2022-12-04T02:07:28.691Z,102200.03
2022-12-04T02:07:43.568Z,102200.03
2022-12-04T02:08:01.389Z,102204.41
2022-12-04T02:08:14.076Z,102203.50
2022-12-04T02:08:28.347Z,102201.75
2022-12-04T02:08:41.278Z,102199.97
2022-12-04T02:08:54.088Z,102203.53
2022-12-04T02:09:06.979Z,102200.03
2022-12-04T02:09:26.887Z,102199.13
2022-12-04T02:09:41.884Z,102202.66
2022-12-04T02:09:56.459Z,102207.97
2022-12-04T02:10:10.257Z,102201.75
2022-12-04T02:10:28.482Z,102200.88
2022-12-04T02:10:50.642Z,102201.78
2022-12-04T02:11:15.085Z,102199.13
2022-12-04T02:11:33.502Z,102200.03
2022-12-04T02:11:52.442Z,102201.75
2022-12-04T02:12:12.021Z,102194.75
2022-12-04T02:12:33.007Z,102199.09
2022-12-04T02:12:51.257Z,102201.78
2022-12-04T02:13:12.632Z,102199.13
2022-12-04T02:13:32.774Z,102202.66
2022-12-04T02:13:57.046Z,102200.03
2022-12-04T02:14:20.298Z,102200.03
2022-12-04T02:14:45.681Z,102199.09
2022-12-04T02:15:06.261Z,102201.75
2022-12-04T02:15:28.150Z,102197.41
2022-12-04T02:15:48.874Z,102199.19
2022-12-04T02:16:09.923Z,102196.56
2022-12-04T02:16:30.961Z,102196.56
2022-12-04T02:16:51.024Z,102196.47
2022-12-04T02:17:13.053Z,102205.25
2022-12-04T02:17:33.170Z,102207.91
2022-12-04T02:17:53.848Z,102207.03
2022-12-04T02:18:14.411Z,102205.31
2022-12-04T02:18:33.859Z,102201.78
2022-12-04T02:18:55.584Z,102201.75
2022-12-04T02:19:26.364Z,102198.25
2022-12-04T02:20:01.594Z,102200.03
2022-12-04T02:20:25.381Z,102206.19
2022-12-04T02:20:43.494Z,102203.50
2022-12-04T02:21:05.294Z,102195.59
2022-12-04T02:21:22.086Z,102196.47
2022-12-04T02:21:38.012Z,102200.03
2022-12-04T02:21:55.741Z,102199.13
2022-12-04T02:22:17.013Z,102194.75
2022-12-04T02:22:48.383Z,102193.84
2022-12-04T02:23:34.530Z,102196.47
2022-12-04T02:24:10.040Z,102193.84
2022-12-04T02:24:46.769Z,102190.34
2022-12-04T02:25:09.149Z,102194.78
2022-12-04T02:25:29.525Z,102196.59
2022-12-04T02:25:49.383Z,102197.44
2022-12-04T02:26:17.843Z,102200.09
2022-12-04T02:26:40.430Z,102197.44
2022-12-04T02:27:00.085Z,102200.97
2022-12-04T02:27:24.518Z,102195.69
2022-12-04T02:28:02.660Z,102200.09
2022-12-04T02:28:23.760Z,102191.28
2022-12-04T02:28:44.413Z,102195.72
2022-12-04T02:29:02.811Z,102195.69
2022-12-04T02:29:35.234Z,102195.72
2022-12-04T02:29:56.403Z,102193.94
2022-12-04T02:30:12.793Z,102193.94
2022-12-04T02:30:27.545Z,102194.81
2022-12-04T02:30:42.922Z,102199.19
2022-12-04T02:30:59.854Z,102189.50
2022-12-04T02:31:17.065Z,102193.94
2022-12-04T02:31:34.891Z,102197.41
2022-12-04T02:31:56.417Z,102197.44
2022-12-04T02:32:19.995Z,102192.13
2022-12-04T02:32:38.551Z,102197.41
2022-12-04T02:32:58.770Z,102194.78
2022-12-04T02:33:18.621Z,102189.47
2022-12-04T02:33:40.155Z,102198.28
2022-12-04T02:34:01.392Z,102189.47
2022-12-04T02:34:18.286Z,102190.34
2022-12-04T02:34:40.419Z,102187.69
2022-12-04T02:34:59.276Z,102193.00
2022-12-04T02:35:17.794Z,102191.22
2022-12-04T02:35:35.991Z,102185.06
2022-12-04T02:35:55.608Z,102189.47
2022-12-04T02:36:11.707Z,102187.69
2022-12-04T02:36:27.676Z,102187.69
2022-12-04T02:36:48.041Z,102192.09
2022-12-04T02:37:07.581Z,102193.00
2022-12-04T02:37:27.152Z,102189.47
2022-12-04T02:37:44.881Z,102190.34
2022-12-04T02:38:03.203Z,102185.97
2022-12-04T02:38:24.694Z,102193.09
2022-12-04T02:38:42.136Z,102186.88
2022-12-04T02:38:58.997Z,102192.16
2022-12-04T02:39:18.604Z,102190.41
2022-12-04T02:39:36.533Z,102187.69
2022-12-04T02:39:56.383Z,102189.47
2022-12-04T02:40:17.067Z,102186.88
2022-12-04T02:40:33.903Z,102195.69
2022-12-04T02:40:52.886Z,102182.50
2022-12-04T02:41:09.925Z,102187.78
2022-12-04T02:41:26.092Z,102186.03
2022-12-04T02:41:43.675Z,102194.03
2022-12-04T02:42:03.278Z,102186.03
2022-12-04T02:42:23.543Z,102184.31
2022-12-04T02:42:40.528Z,102187.81
2022-12-04T02:42:59.973Z,102189.56
2022-12-04T02:43:17.862Z,102189.56
2022-12-04T02:43:35.789Z,102187.81
2022-12-04T02:43:52.189Z,102188.75
2022-12-04T02:44:11.008Z,102189.59
2022-12-04T02:44:28.036Z,102186.94
2022-12-04T02:44:45.274Z,102180.75
2022-12-04T02:45:02.504Z,102180.75
2022-12-04T02:45:18.574Z,102186.00
2022-12-04T02:45:35.751Z,102182.50
2022-12-04T02:45:55.750Z,102184.22
2022-12-04T02:46:12.044Z,102186.88
2022-12-04T02:46:30.897Z,102188.66
2022-12-04T02:46:48.002Z,102182.50
2022-12-04T02:47:05.805Z,102181.69
2022-12-04T02:47:22.450Z,102183.41
2022-12-04T02:47:36.833Z,102180.75
2022-12-04T02:47:52.232Z,102181.66
2022-12-04T02:48:07.962Z,102178.13
2022-12-04T02:48:22.421Z,102177.22
2022-12-04T02:48:38.771Z,102183.38
2022-12-04T02:48:55.698Z,102186.88
2022-12-04T02:49:14.061Z,102182.41
2022-12-04T02:49:32.511Z,102184.22
2022-12-04T02:49:49.473Z,102178.94
2022-12-04T02:50:05.314Z,102178.09
2022-12-04T02:50:22.230Z,102181.56
2022-12-04T02:50:39.615Z,102175.34
2022-12-04T02:50:56.896Z,102185.03
2022-12-04T02:51:13.473Z,102182.41